Time;durP1;ratioP1;P1;durP2;ratioP2;P2;SDS_P1;SDS_P2;PMS_P1;PMS_P2;Temp;Humidity;BMP_temperature;BMP_pressure;BME280_temperature;BME280_humidity;BME280_pressure;Samples;Min_cycle;Max_cycle;Signal;HPM_P1;HPM_P2
2022/05/25 00:01:48;;;;;;;;;;;23.00;48.30;;;;;;6321717;27;19962;-52
2022/05/25 00:04:49;;;;;;;;;;;23.00;48.20;;;;;;6346071;27;20486;-51
2022/05/25 00:07:51;;;;;;;;;;;22.90;48.30;;;;;;6345362;27;20886;-53
2022/05/25 00:10:53;;;;;;;;;;;23.40;48.50;;;;;;6344161;27;19948;-54
2022/05/25 00:13:54;;;;;;;;;;;23.20;48.40;;;;;;6343704;27;19938;-52
2022/05/25 00:16:55;;;;;;;;;;;23.70;48.60;;;;;;6349066;27;19970;-52
2022/05/25 00:20:00;;;;;;;;;;;23.20;48.40;;;;;;6351075;27;19988;-53
2022/05/25 00:23:01;;;;;;;;;;;22.90;48.20;;;;;;6348248;27;19931;-52
2022/05/25 00:26:04;;;;;;;;;;;22.90;48.20;;;;;;6346832;27;20011;-54
2022/05/25 00:29:05;;;;;;;;;;;23.00;48.20;;;;;;6342947;27;19931;-55
2022/05/25 00:32:07;;;;;;;;;;;23.10;48.40;;;;;;6344501;27;20049;-53
2022/05/25 00:35:09;;;;;;;;;;;23.20;48.30;;;;;;6348747;27;19958;-51
2022/05/25 00:38:11;;;;;;;;;;;23.10;48.30;;;;;;6349965;27;21477;-52
2022/05/25 00:41:13;;;;;;;;;;;22.80;48.10;;;;;;6350648;27;19954;-51
2022/05/25 00:44:14;;;;;;;;;;;23.80;48.60;;;;;;6349156;27;19966;-52
2022/05/25 00:47:21;;;;;;;;;;;22.90;48.30;;;;;;6350498;27;20045;-52
2022/05/25 00:50:23;;;;;;;;;;;23.20;48.30;;;;;;6345731;27;20046;-54
2022/05/25 00:53:25;;;;;;;;;;;23.30;48.30;;;;;;6352037;27;20045;-53
2022/05/25 00:56:29;;;;;;;;;;;23.30;48.30;;;;;;6353232;27;20771;-53
2022/05/25 00:59:32;;;;;;;;;;;23.40;48.40;;;;;;6353923;27;19931;-53
2022/05/25 01:02:35;;;;;;;;;;;23.10;48.30;;;;;;6330959;27;19931;-51
2022/05/25 01:05:38;;;;;;;;;;;22.90;48.10;;;;;;6332471;27;21053;-55
2022/05/25 01:08:43;;;;;;;;;;;23.10;48.10;;;;;;6345974;27;20312;-50
2022/05/25 01:11:52;;;;;;;;;;;23.20;48.20;;;;;;6338492;27;20477;-52
2022/05/25 01:15:01;;;;;;;;;;;23.10;48.20;;;;;;6341888;27;19974;-50
2022/05/25 01:18:06;;;;;;;;;;;22.60;47.90;;;;;;6331550;27;20269;-53
2022/05/25 01:21:12;;;;;;;;;;;22.90;48.10;;;;;;6346541;27;19948;-52
2022/05/25 01:24:18;;;;;;;;;;;22.90;48.10;;;;;;6348876;27;20165;-51
2022/05/25 01:27:27;;;;;;;;;;;23.10;48.20;;;;;;6346233;27;19934;-50
2022/05/25 01:30:31;;;;;;;;;;;23.30;48.30;;;;;;6346938;27;20563;-50
2022/05/25 01:33:37;;;;;;;;;;;23.00;48.10;;;;;;6347971;27;20345;-52
2022/05/25 01:36:42;;;;;;;;;;;22.70;48.00;;;;;;6349991;27;20462;-51
2022/05/25 01:39:45;;;;;;;;;;;23.10;48.20;;;;;;6348966;27;20355;-52
2022/05/25 01:42:50;;;;;;;;;;;23.00;48.20;;;;;;6347386;27;19931;-52
2022/05/25 01:45:54;;;;;;;;;;;23.10;48.30;;;;;;6345854;27;20619;-51
2022/05/25 01:48:56;;;;;;;;;;;22.80;48.10;;;;;;6348218;27;20053;-50
2022/05/25 01:52:00;;;;;;;;;;;22.70;48.00;;;;;;6344361;27;20193;-51
2022/05/25 01:55:04;;;;;;;;;;;23.00;48.20;;;;;;6341918;27;20494;-53
2022/05/25 01:58:08;;;;;;;;;;;23.00;48.20;;;;;;6341211;27;19933;-52
2022/05/25 02:01:11;;;;;;;;;;;23.00;48.30;;;;;;6324319;27;20022;-51
2022/05/25 02:07:31;;;;;;;;;;;22.50;48.00;;;;;;6345932;27;20215;-51
2022/05/25 02:10:38;;;;;;;;;;;23.00;48.30;;;;;;6343879;27;20516;-52
2022/05/25 02:13:47;;;;;;;;;;;23.50;48.50;;;;;;6347691;27;19970;-51
2022/05/25 02:16:56;;;;;;;;;;;23.00;48.20;;;;;;6346927;27;19931;-52
2022/05/25 02:20:00;;;;;;;;;;;23.00;48.30;;;;;;6347217;27;20761;-49
2022/05/25 02:23:04;;;;;;;;;;;22.90;48.80;;;;;;6346390;27;19931;-53
2022/05/25 02:26:08;;;;;;;;;;;23.00;48.30;;;;;;6342462;27;21213;-53
2022/05/25 02:29:11;;;;;;;;;;;23.00;48.30;;;;;;6343746;27;20735;-50
2022/05/25 02:32:16;;;;;;;;;;;22.90;48.20;;;;;;6328232;27;20384;-53
2022/05/25 02:35:18;;;;;;;;;;;22.90;48.30;;;;;;6346784;27;19930;-52
2022/05/25 02:38:19;;;;;;;;;;;22.60;48.10;;;;;;6320528;27;20346;-51
2022/05/25 02:41:26;;;;;;;;;;;22.90;48.30;;;;;;6340745;27;19931;-51
2022/05/25 02:44:27;;;;;;;;;;;22.60;48.10;;;;;;6348326;27;20425;-53
2022/05/25 02:47:29;;;;;;;;;;;22.90;48.40;;;;;;6339867;27;20046;-51
2022/05/25 02:50:31;;;;;;;;;;;23.00;48.40;;;;;;6338280;27;19930;-51
2022/05/25 02:53:32;;;;;;;;;;;23.20;48.50;;;;;;6349432;27;20354;-53
2022/05/25 02:56:34;;;;;;;;;;;22.80;48.40;;;;;;6345734;27;20041;-51
2022/05/25 02:59:36;;;;;;;;;;;22.80;48.30;;;;;;6326965;27;20001;-50
2022/05/25 03:02:38;;;;;;;;;;;23.00;48.50;;;;;;6344477;27;19937;-52
2022/05/25 03:05:39;;;;;;;;;;;22.60;48.20;;;;;;6325371;27;19933;-51
2022/05/25 03:08:41;;;;;;;;;;;22.60;48.30;;;;;;6345287;27;19931;-54
2022/05/25 03:11:42;;;;;;;;;;;22.60;48.20;;;;;;6344435;27;19961;-52
2022/05/25 03:14:44;;;;;;;;;;;22.60;48.30;;;;;;6345103;27;20291;-50
2022/05/25 03:17:46;;;;;;;;;;;23.00;48.50;;;;;;6345616;27;19926;-50
2022/05/25 03:20:49;;;;;;;;;;;22.90;48.40;;;;;;6343871;27;19934;-53
2022/05/25 03:23:50;;;;;;;;;;;22.80;48.40;;;;;;6349418;27;20252;-52
2022/05/25 03:26:51;;;;;;;;;;;22.60;48.30;;;;;;6349537;27;19973;-53
2022/05/25 03:29:53;;;;;;;;;;;22.90;48.50;;;;;;6351659;27;20285;-53
2022/05/25 03:32:55;;;;;;;;;;;22.70;48.40;;;;;;6348708;27;19927;-54
2022/05/25 03:35:56;;;;;;;;;;;22.90;48.50;;;;;;6345443;27;20102;-53
2022/05/25 03:38:58;;;;;;;;;;;23.30;48.70;;;;;;6348288;27;20296;-54
2022/05/25 03:42:00;;;;;;;;;;;22.70;48.40;;;;;;6351703;27;20756;-51
2022/05/25 03:45:04;;;;;;;;;;;23.00;48.50;;;;;;6330030;27;20521;-53
2022/05/25 03:48:07;;;;;;;;;;;22.90;48.50;;;;;;6345866;27;19930;-50
2022/05/25 03:51:08;;;;;;;;;;;22.80;48.50;;;;;;6344966;27;19927;-52
2022/05/25 03:54:10;;;;;;;;;;;22.70;48.50;;;;;;6343912;27;19974;-51
2022/05/25 03:57:11;;;;;;;;;;;22.80;48.40;;;;;;6344620;27;20056;-52
2022/05/25 04:00:13;;;;;;;;;;;22.80;48.50;;;;;;6345890;27;20927;-52
2022/05/25 04:03:15;;;;;;;;;;;22.70;48.50;;;;;;6329598;27;20439;-54
2022/05/25 04:06:17;;;;;;;;;;;23.10;48.60;;;;;;6316380;27;20097;-51
2022/05/25 04:09:18;;;;;;;;;;;22.90;48.60;;;;;;6340923;27;19930;-51
2022/05/25 04:12:22;;;;;;;;;;;22.80;48.60;;;;;;6344564;27;19942;-54
2022/05/25 04:15:24;;;;;;;;;;;22.90;48.70;;;;;;6345680;27;20398;-50
2022/05/25 04:18:26;;;;;;;;;;;22.60;48.50;;;;;;6323369;27;20049;-52
2022/05/25 04:21:27;;;;;;;;;;;22.50;48.50;;;;;;6336551;27;20203;-50
2022/05/25 04:24:29;;;;;;;;;;;22.70;48.60;;;;;;6335777;27;19960;-53
2022/05/25 04:27:30;;;;;;;;;;;22.70;48.50;;;;;;6339158;27;20220;-52
2022/05/25 04:30:32;;;;;;;;;;;22.60;48.40;;;;;;6344124;27;19970;-51
2022/05/25 04:33:36;;;;;;;;;;;22.90;48.60;;;;;;6319674;27;20294;-50
2022/05/25 04:36:40;;;;;;;;;;;22.60;48.60;;;;;;6341590;27;19931;-52
2022/05/25 04:39:41;;;;;;;;;;;22.50;48.50;;;;;;6340363;27;20260;-52
2022/05/25 04:42:45;;;;;;;;;;;22.60;48.70;;;;;;6338827;27;19927;-52
2022/05/25 04:45:47;;;;;;;;;;;22.40;48.40;;;;;;6337233;27;20438;-55
2022/05/25 04:48:49;;;;;;;;;;;22.80;48.70;;;;;;6319973;27;20500;-50
2022/05/25 04:51:51;;;;;;;;;;;22.10;48.30;;;;;;6332698;27;19937;-50
2022/05/25 04:54:52;;;;;;;;;;;22.60;48.70;;;;;;6336860;27;19935;-52
2022/05/25 04:57:53;;;;;;;;;;;22.80;48.80;;;;;;6336118;27;19927;-52
2022/05/25 05:00:55;;;;;;;;;;;22.60;48.70;;;;;;6335441;27;20066;-53
2022/05/25 05:03:57;;;;;;;;;;;22.70;48.70;;;;;;6333409;27;20217;-52
2022/05/25 05:06:58;;;;;;;;;;;22.30;48.40;;;;;;6337527;27;20121;-51
2022/05/25 05:10:01;;;;;;;;;;;22.30;48.50;;;;;;6350343;27;20854;-55
2022/05/25 05:13:04;;;;;;;;;;;22.70;48.60;;;;;;6351264;27;21677;-57
2022/05/25 05:16:06;;;;;;;;;;;22.60;48.50;;;;;;6333587;27;19981;-51
2022/05/25 05:19:08;;;;;;;;;;;22.70;48.80;;;;;;6327431;27;20178;-53
2022/05/25 05:22:27;;;;;;;;;;;22.40;48.50;;;;;;6332312;27;21540;-52
2022/05/25 05:25:29;;;;;;;;;;;22.20;48.50;;;;;;6333911;27;20079;-53
2022/05/25 05:28:33;;;;;;;;;;;22.60;48.70;;;;;;6337075;27;20138;-51
2022/05/25 05:31:34;;;;;;;;;;;22.70;48.80;;;;;;6335250;27;20574;-52
2022/05/25 05:34:36;;;;;;;;;;;22.30;48.60;;;;;;6332666;27;21238;-52
2022/05/25 05:37:39;;;;;;;;;;;22.30;48.50;;;;;;6333959;27;20282;-52
2022/05/25 05:40:40;;;;;;;;;;;22.10;48.50;;;;;;6326331;27;21641;-51
2022/05/25 05:43:42;;;;;;;;;;;22.50;48.70;;;;;;6331434;27;20251;-53
2022/05/25 05:46:44;;;;;;;;;;;22.60;48.80;;;;;;6327930;27;19942;-51
2022/05/25 05:49:47;;;;;;;;;;;22.70;48.60;;;;;;6331581;27;20396;-51
2022/05/25 05:52:56;;;;;;;;;;;22.20;48.40;;;;;;6297072;27;19930;-54
2022/05/25 05:55:58;;;;;;;;;;;22.80;49.20;;;;;;6314486;27;19938;-55
2022/05/25 05:58:59;;;;;;;;;;;22.70;48.70;;;;;;6317493;27;20427;-54
2022/05/25 06:02:01;;;;;;;;;;;22.20;48.50;;;;;;6311240;27;19970;-56
2022/05/25 06:05:03;;;;;;;;;;;22.60;48.50;;;;;;6317000;27;19931;-53
2022/05/25 06:08:07;;;;;;;;;;;22.80;48.60;;;;;;6312615;27;19930;-54
2022/05/25 06:11:08;;;;;;;;;;;22.50;48.30;;;;;;6307101;27;19931;-56
2022/05/25 06:14:10;;;;;;;;;;;22.60;48.40;;;;;;6312361;27;19931;-53
2022/05/25 06:20:27;;;;;;;;;;;22.60;48.40;;;;;;6321754;27;20644;-55
2022/05/25 06:23:28;;;;;;;;;;;22.90;48.40;;;;;;6319167;27;19930;-51
2022/05/25 06:26:30;;;;;;;;;;;23.10;48.50;;;;;;6307070;27;19995;-55
2022/05/25 06:29:32;;;;;;;;;;;22.90;48.40;;;;;;6312872;27;19937;-55
2022/05/25 06:32:34;;;;;;;;;;;22.80;48.40;;;;;;6290806;27;20049;-55
2022/05/25 06:35:36;;;;;;;;;;;22.60;48.10;;;;;;6284340;27;19942;-52
2022/05/25 06:38:37;;;;;;;;;;;22.90;48.30;;;;;;6298711;27;19931;-54
2022/05/25 06:41:39;;;;;;;;;;;22.70;48.20;;;;;;6241116;27;21585;-55
2022/05/25 06:44:41;;;;;;;;;;;22.70;48.00;;;;;;6274276;27;19930;-53
2022/05/25 06:47:42;;;;;;;;;;;23.10;48.30;;;;;;6272048;27;19931;-53
2022/05/25 06:50:46;;;;;;;;;;;22.70;48.10;;;;;;6267129;27;19946;-52
2022/05/25 06:53:49;;;;;;;;;;;23.10;47.80;;;;;;6258432;27;20134;-59
2022/05/25 06:56:51;;;;;;;;;;;22.90;47.80;;;;;;6241671;27;20007;-60
2022/05/25 06:59:53;;;;;;;;;;;23.10;48.20;;;;;;6205357;27;21765;-59
2022/05/25 07:02:55;;;;;;;;;;;23.00;48.10;;;;;;6209084;27;19931;-57
2022/05/25 07:05:57;;;;;;;;;;;23.10;48.10;;;;;;6196287;27;19938;-56
2022/05/25 07:08:59;;;;;;;;;;;23.10;48.10;;;;;;6193619;27;20956;-54
2022/05/25 07:12:00;;;;;;;;;;;23.20;48.10;;;;;;6191800;27;19942;-57
2022/05/25 07:15:02;;;;;;;;;;;23.10;48.00;;;;;;6209818;27;20018;-57
2022/05/25 07:18:03;;;;;;;;;;;23.00;47.90;;;;;;6199078;27;19931;-57
2022/05/25 07:21:07;;;;;;;;;;;23.10;48.10;;;;;;6215812;27;19931;-56
2022/05/25 07:24:09;;;;;;;;;;;23.10;48.00;;;;;;6223035;27;19942;-58
2022/05/25 07:27:10;;;;;;;;;;;22.90;47.80;;;;;;6189570;27;20137;-58
2022/05/25 07:30:13;;;;;;;;;;;23.10;47.80;;;;;;6184461;27;19931;-61
2022/05/25 07:33:14;;;;;;;;;;;23.30;47.90;;;;;;6202986;27;21067;-55
2022/05/25 07:36:16;;;;;;;;;;;23.10;47.60;;;;;;6208136;27;19937;-59
2022/05/25 07:39:19;;;;;;;;;;;23.40;47.90;;;;;;6190278;27;19938;-64
2022/05/25 07:42:21;;;;;;;;;;;23.40;47.90;;;;;;6187155;27;19931;-60
2022/05/25 07:45:23;;;;;;;;;;;23.40;47.90;;;;;;6212652;27;19938;-59
2022/05/25 07:48:24;;;;;;;;;;;22.80;47.50;;;;;;6185378;27;19931;-64
2022/05/25 07:51:26;;;;;;;;;;;23.40;47.80;;;;;;6190043;27;20260;-55
2022/05/25 07:54:28;;;;;;;;;;;23.40;47.80;;;;;;6199519;27;20016;-56
2022/05/25 07:57:30;;;;;;;;;;;23.20;47.70;;;;;;6212929;27;19931;-57
2022/05/25 08:00:31;;;;;;;;;;;23.50;47.80;;;;;;6201076;27;20088;-58
2022/05/25 08:06:47;;;;;;;;;;;23.50;47.80;;;;;;6170648;27;19931;-58
2022/05/25 08:09:49;;;;;;;;;;;23.50;47.80;;;;;;6199499;27;19930;-61
2022/05/25 08:12:55;;;;;;;;;;;23.50;47.80;;;;;;6216972;27;19935;-62
2022/05/25 08:15:56;;;;;;;;;;;23.60;47.80;;;;;;6187511;27;20037;-62
2022/05/25 08:18:58;;;;;;;;;;;23.30;47.60;;;;;;6195444;27;21049;-60
2022/05/25 08:22:00;;;;;;;;;;;23.40;47.70;;;;;;6173581;27;19931;-62
2022/05/25 08:25:05;;;;;;;;;;;23.50;47.80;;;;;;6202349;27;21982;-62
2022/05/25 08:28:07;;;;;;;;;;;23.40;47.50;;;;;;6204680;27;19931;-63
2022/05/25 08:31:08;;;;;;;;;;;23.60;47.70;;;;;;6175694;27;22321;-63
2022/05/25 08:34:10;;;;;;;;;;;23.50;47.70;;;;;;6168180;27;19938;-62
2022/05/25 08:37:12;;;;;;;;;;;23.60;47.90;;;;;;6183890;27;19934;-63
2022/05/25 08:40:14;;;;;;;;;;;23.30;47.60;;;;;;6203458;27;19930;-62
2022/05/25 08:43:22;;;;;;;;;;;23.40;47.60;;;;;;6194393;27;19930;-63
2022/05/25 08:46:54;;;;;;;;;;;23.60;47.70;;;;;;6181995;27;19931;-63
2022/05/25 08:49:56;;;;;;;;;;;23.60;47.80;;;;;;6171505;27;20027;-62
2022/05/25 08:52:59;;;;;;;;;;;23.20;47.50;;;;;;6206050;27;19931;-62
2022/05/25 08:56:03;;;;;;;;;;;23.40;47.70;;;;;;6169007;27;19960;-61
2022/05/25 08:59:07;;;;;;;;;;;23.70;47.80;;;;;;6198182;27;19939;-62
2022/05/25 09:02:13;;;;;;;;;;;23.60;47.70;;;;;;6215006;27;19931;-61
2022/05/25 09:05:18;;;;;;;;;;;23.60;47.70;;;;;;6194880;27;20011;-62
2022/05/25 09:08:26;;;;;;;;;;;23.60;47.70;;;;;;6209363;27;20920;-63
2022/05/25 09:11:30;;;;;;;;;;;23.70;47.80;;;;;;6177853;27;21826;-62
2022/05/25 09:14:34;;;;;;;;;;;23.80;47.80;;;;;;6201504;27;20061;-62
2022/05/25 09:17:40;;;;;;;;;;;23.50;47.70;;;;;;6203640;27;19930;-62
2022/05/25 09:20:44;;;;;;;;;;;23.70;47.80;;;;;;6210917;27;20078;-62
2022/05/25 09:23:46;;;;;;;;;;;23.40;47.60;;;;;;6174270;27;19973;-62
2022/05/25 09:26:48;;;;;;;;;;;23.50;47.70;;;;;;6173161;27;20015;-67
2022/05/25 09:29:50;;;;;;;;;;;23.50;47.70;;;;;;6182646;27;20266;-63
2022/05/25 09:32:55;;;;;;;;;;;23.50;47.70;;;;;;6166959;27;21461;-62
2022/05/25 09:35:58;;;;;;;;;;;23.60;47.70;;;;;;6173609;27;20018;-62
2022/05/25 09:39:04;;;;;;;;;;;23.70;47.70;;;;;;6154176;27;19931;-60
2022/05/25 09:42:06;;;;;;;;;;;23.20;47.50;;;;;;6182415;27;19942;-57
2022/05/25 09:45:09;;;;;;;;;;;23.60;47.80;;;;;;6159336;27;23071;-63
2022/05/25 09:48:40;;;;;;;;;;;23.60;47.70;;;;;;6194037;27;19935;-61
2022/05/25 09:51:43;;;;;;;;;;;23.80;47.80;;;;;;6167652;27;19931;-59
2022/05/25 09:54:49;;;;;;;;;;;23.60;47.70;;;;;;6198414;27;20061;-61
2022/05/25 09:57:54;;;;;;;;;;;23.30;47.50;;;;;;6184988;27;19943;-59
2022/05/25 10:00:57;;;;;;;;;;;23.60;47.60;;;;;;6186266;27;19931;-61
2022/05/25 10:04:04;;;;;;;;;;;23.70;47.70;;;;;;6163725;27;20011;-62
2022/05/25 10:07:16;;;;;;;;;;;23.70;47.80;;;;;;6189070;27;19937;-60
2022/05/25 10:10:24;;;;;;;;;;;23.50;47.50;;;;;;6198046;27;19937;-61
2022/05/25 10:13:27;;;;;;;;;;;23.80;47.70;;;;;;6159114;27;19958;-61
2022/05/25 10:16:30;;;;;;;;;;;23.30;47.40;;;;;;6163573;27;20011;-61
2022/05/25 10:19:33;;;;;;;;;;;23.50;47.50;;;;;;6199384;27;21041;-59
2022/05/25 10:22:36;;;;;;;;;;;23.80;47.70;;;;;;6208413;27;20064;-60
2022/05/25 10:25:41;;;;;;;;;;;23.80;47.70;;;;;;6196375;27;20050;-60
2022/05/25 10:28:46;;;;;;;;;;;23.60;47.50;;;;;;6191494;27;20404;-62
2022/05/25 10:38:21;;;;;;;;;;;23.90;47.60;;;;;;6226001;27;20124;-55
2022/05/25 10:41:37;;;;;;;;;;;23.90;47.60;;;;;;6245206;27;20187;-59
2022/05/25 10:44:46;;;;;;;;;;;23.90;47.50;;;;;;6228960;27;20919;-54
2022/05/25 10:47:55;;;;;;;;;;;23.80;47.50;;;;;;6256158;27;19931;-56
2022/05/25 10:50:58;;;;;;;;;;;23.80;47.50;;;;;;6264152;27;19931;-59
2022/05/25 10:57:44;;;;;;;;;;;23.80;47.40;;;;;;6274616;27;20883;-58
2022/05/25 11:00:53;;;;;;;;;;;23.30;47.20;;;;;;6270241;27;19930;-56
2022/05/25 11:04:03;;;;;;;;;;;23.90;47.50;;;;;;6266131;27;19938;-55
2022/05/25 11:07:11;;;;;;;;;;;24.00;47.50;;;;;;6271529;27;19938;-56
2022/05/25 11:10:19;;;;;;;;;;;24.00;47.40;;;;;;6261720;27;19968;-57
2022/05/25 11:13:31;;;;;;;;;;;24.00;47.50;;;;;;6220758;27;20078;-58
2022/05/25 11:16:36;;;;;;;;;;;23.80;47.30;;;;;;6261260;27;21022;-61
2022/05/25 11:19:48;;;;;;;;;;;24.00;47.40;;;;;;6277297;27;19970;-57
2022/05/25 11:22:58;;;;;;;;;;;24.00;47.40;;;;;;6274966;27;20969;-54
2022/05/25 11:26:04;;;;;;;;;;;24.00;47.40;;;;;;6282853;27;19964;-59
2022/05/25 11:29:34;;;;;;;;;;;24.00;47.40;;;;;;6205438;27;19951;-59
2022/05/25 11:32:44;;;;;;;;;;;23.90;47.30;;;;;;6252436;27;20065;-56
2022/05/25 11:35:52;;;;;;;;;;;24.30;47.50;;;;;;6255287;27;19931;-61
2022/05/25 11:39:02;;;;;;;;;;;24.00;47.30;;;;;;6266843;27;19931;-58
2022/05/25 11:42:11;;;;;;;;;;;23.80;47.30;;;;;;6264396;27;19931;-60
2022/05/25 11:45:20;;;;;;;;;;;24.10;47.40;;;;;;6265134;27;20046;-58
2022/05/25 11:48:29;;;;;;;;;;;24.10;47.30;;;;;;6251796;27;19931;-60
2022/05/25 11:51:36;;;;;;;;;;;24.10;47.30;;;;;;6238644;27;20076;-61
2022/05/25 11:54:44;;;;;;;;;;;24.20;47.30;;;;;;6180665;27;19931;-61
2022/05/25 11:57:49;;;;;;;;;;;24.00;47.20;;;;;;6220963;27;20029;-61
2022/05/25 12:00:57;;;;;;;;;;;23.80;47.00;;;;;;6175706;27;22398;-61
2022/05/25 12:04:07;;;;;;;;;;;24.20;47.20;;;;;;6126320;27;19934;-63
2022/05/25 12:07:21;;;;;;;;;;;24.30;47.30;;;;;;6197183;27;19931;-64
2022/05/25 12:13:58;;;;;;;;;;;24.00;47.00;;;;;;6250863;27;20030;-60
2022/05/25 12:17:05;;;;;;;;;;;24.20;47.10;;;;;;6202429;27;21175;-64
2022/05/25 12:20:09;;;;;;;;;;;24.20;47.10;;;;;;6235173;27;19938;-59
2022/05/25 12:23:13;;;;;;;;;;;24.30;47.20;;;;;;6206655;27;19930;-64
2022/05/25 12:26:22;;;;;;;;;;;24.20;47.10;;;;;;6199649;27;20040;-59
2022/05/25 12:29:26;;;;;;;;;;;24.30;47.30;;;;;;6219910;27;19938;-60
2022/05/25 12:32:28;;;;;;;;;;;24.10;47.10;;;;;;6207227;27;19935;-63
2022/05/25 12:35:30;;;;;;;;;;;24.30;47.30;;;;;;6191737;27;19931;-62
2022/05/25 12:38:32;;;;;;;;;;;24.20;47.30;;;;;;6211887;27;21991;-60
2022/05/25 12:41:39;;;;;;;;;;;24.10;47.30;;;;;;6213269;27;19956;-62
2022/05/25 12:51:27;;;;;;;;;;;24.10;47.20;;;;;;6216792;27;20985;-58
2022/05/25 12:54:31;;;;;;;;;;;24.10;47.20;;;;;;6228547;27;20067;-62
2022/05/25 12:57:37;;;;;;;;;;;24.10;47.30;;;;;;6189254;27;19971;-64
2022/05/25 13:00:40;;;;;;;;;;;24.20;47.30;;;;;;6229927;27;20061;-61
2022/05/25 13:04:02;;;;;;;;;;;23.80;47.10;;;;;;6197202;27;19949;-58
2022/05/25 13:07:19;;;;;;;;;;;24.10;47.20;;;;;;6207774;27;19931;-60
2022/05/25 13:10:44;;;;;;;;;;;24.10;47.20;;;;;;6222539;27;19930;-58
2022/05/25 13:13:48;;;;;;;;;;;24.20;47.20;;;;;;6194164;27;21233;-58
2022/05/25 13:16:51;;;;;;;;;;;24.30;47.30;;;;;;6225053;27;20015;-59
2022/05/25 13:19:53;;;;;;;;;;;24.30;47.40;;;;;;6186930;27;21363;-60
2022/05/25 13:22:54;;;;;;;;;;;24.20;47.30;;;;;;6209114;27;19938;-55
2022/05/25 13:26:03;;;;;;;;;;;24.20;47.30;;;;;;6225631;27;19931;-56
2022/05/25 13:29:08;;;;;;;;;;;24.10;47.30;;;;;;6212045;27;19930;-64
2022/05/25 13:32:13;;;;;;;;;;;23.90;47.10;;;;;;6211047;27;20199;-59
2022/05/25 13:35:28;;;;;;;;;;;24.20;47.30;;;;;;6201894;27;19935;-60
2022/05/25 13:38:35;;;;;;;;;;;24.10;47.30;;;;;;6237343;27;20056;-59
2022/05/25 13:41:41;;;;;;;;;;;24.20;47.30;;;;;;6222178;27;19931;-61
2022/05/25 13:44:46;;;;;;;;;;;24.20;47.70;;;;;;6245954;27;19931;-59
2022/05/25 13:47:50;;;;;;;;;;;24.10;47.30;;;;;;6192772;27;19931;-60
2022/05/25 13:50:55;;;;;;;;;;;24.10;47.30;;;;;;6216391;27;19930;-60
2022/05/25 13:53:56;;;;;;;;;;;24.20;47.30;;;;;;6206404;27;19934;-61
2022/05/25 13:56:58;;;;;;;;;;;24.00;47.20;;;;;;6171615;27;20064;-59
2022/05/25 14:00:09;;;;;;;;;;;24.10;47.20;;;;;;6197466;27;19931;-60
2022/05/25 14:03:20;;;;;;;;;;;24.30;47.40;;;;;;6165591;27;19937;-59
2022/05/25 14:06:22;;;;;;;;;;;23.90;47.50;;;;;;6177458;27;19930;-57
2022/05/25 14:12:46;;;;;;;;;;;24.20;47.30;;;;;;6213302;27;19935;-59
2022/05/25 14:16:03;;;;;;;;;;;24.30;47.40;;;;;;6210655;27;19938;-61
2022/05/25 14:19:05;;;;;;;;;;;24.20;47.30;;;;;;6206711;27;19970;-61
2022/05/25 14:22:08;;;;;;;;;;;24.20;47.30;;;;;;6204214;27;20157;-58
2022/05/25 14:25:15;;;;;;;;;;;24.10;47.30;;;;;;6196924;27;19938;-60
2022/05/25 14:28:23;;;;;;;;;;;24.00;47.20;;;;;;6173404;27;20616;-61
2022/05/25 14:31:24;;;;;;;;;;;24.10;47.30;;;;;;6175226;27;19937;-61
2022/05/25 14:34:27;;;;;;;;;;;24.30;47.40;;;;;;6204617;27;19930;-58
2022/05/25 14:37:35;;;;;;;;;;;24.20;47.30;;;;;;6178289;27;20041;-61
2022/05/25 14:40:44;;;;;;;;;;;24.00;47.20;;;;;;6197904;27;19934;-59
2022/05/25 14:43:46;;;;;;;;;;;24.20;47.30;;;;;;6222116;27;19931;-61
2022/05/25 14:46:49;;;;;;;;;;;24.20;47.30;;;;;;6202862;27;21745;-69
2022/05/25 14:49:55;;;;;;;;;;;24.20;47.30;;;;;;6179473;27;20357;-59
2022/05/25 14:52:59;;;;;;;;;;;24.50;47.40;;;;;;6165765;27;20057;-62
2022/05/25 14:56:01;;;;;;;;;;;24.00;47.20;;;;;;6169198;27;20089;-62
2022/05/25 14:59:03;;;;;;;;;;;24.20;47.50;;;;;;6203293;27;19931;-60
2022/05/25 15:02:05;;;;;;;;;;;24.20;47.40;;;;;;6176900;27;20017;-63
2022/05/25 15:05:17;;;;;;;;;;;24.20;47.50;;;;;;6195734;27;19938;-64
2022/05/25 15:08:24;;;;;;;;;;;24.20;47.40;;;;;;6189914;27;19930;-63
2022/05/25 15:11:35;;;;;;;;;;;24.10;47.30;;;;;;6193733;27;21228;-61
2022/05/25 15:21:22;;;;;;;;;;;24.20;47.40;;;;;;6208619;27;19966;-58
2022/05/25 15:24:54;;;;;;;;;;;24.20;47.40;;;;;;6203241;27;19946;-59
2022/05/25 15:27:58;;;;;;;;;;;24.20;47.40;;;;;;6239220;27;19963;-62
2022/05/25 15:31:00;;;;;;;;;;;24.20;47.40;;;;;;6228693;27;19952;-57
2022/05/25 15:34:27;;;;;;;;;;;24.30;47.40;;;;;;6249734;27;19943;-57
2022/05/25 15:37:34;;;;;;;;;;;24.20;47.40;;;;;;6232455;27;19955;-59
2022/05/25 15:40:37;;;;;;;;;;;24.10;47.40;;;;;;6250741;27;19931;-58
2022/05/25 15:43:39;;;;;;;;;;;24.20;47.40;;;;;;6233641;27;19931;-58
2022/05/25 15:46:42;;;;;;;;;;;24.20;47.40;;;;;;6254247;27;21030;-58
2022/05/25 15:49:43;;;;;;;;;;;24.00;47.30;;;;;;6260493;27;21057;-60
2022/05/25 15:52:46;;;;;;;;;;;24.20;47.40;;;;;;6235457;27;19931;-60
2022/05/25 15:55:48;;;;;;;;;;;24.30;47.40;;;;;;6242189;27;19931;-59
2022/05/25 15:58:49;;;;;;;;;;;24.30;47.40;;;;;;6229683;27;19931;-61
2022/05/25 16:01:53;;;;;;;;;;;24.20;47.40;;;;;;6249795;27;19931;-62
2022/05/25 16:04:54;;;;;;;;;;;24.50;47.50;;;;;;6245064;27;20514;-61
2022/05/25 16:11:09;;;;;;;;;;;24.20;47.40;;;;;;6269147;27;20132;-54
2022/05/25 16:14:10;;;;;;;;;;;24.30;47.60;;;;;;6261242;27;19931;-57
2022/05/25 16:17:12;;;;;;;;;;;24.30;47.50;;;;;;6277726;27;20543;-58
2022/05/25 16:20:15;;;;;;;;;;;24.30;47.40;;;;;;6289719;27;20274;-58
2022/05/25 16:23:18;;;;;;;;;;;24.30;47.50;;;;;;6292431;27;19930;-55
2022/05/25 16:26:20;;;;;;;;;;;24.40;47.50;;;;;;6280081;27;21056;-56
2022/05/25 16:29:22;;;;;;;;;;;24.30;47.40;;;;;;6291106;27;20057;-54
2022/05/25 16:32:25;;;;;;;;;;;24.40;47.60;;;;;;6280401;27;20362;-52
2022/05/25 16:35:26;;;;;;;;;;;24.50;47.60;;;;;;6286740;27;20181;-57
2022/05/25 16:38:27;;;;;;;;;;;24.40;47.60;;;;;;6268578;27;21244;-57
2022/05/25 16:41:31;;;;;;;;;;;23.90;47.30;;;;;;6295161;27;19931;-58
2022/05/25 16:44:34;;;;;;;;;;;24.50;48.30;;;;;;6300782;27;20066;-58
2022/05/25 16:47:35;;;;;;;;;;;24.30;47.50;;;;;;6303200;27;21166;-56
2022/05/25 16:50:37;;;;;;;;;;;24.10;47.50;;;;;;6276923;27;19931;-57
2022/05/25 16:53:38;;;;;;;;;;;24.00;47.50;;;;;;6296683;27;20025;-59
2022/05/25 16:56:40;;;;;;;;;;;24.10;47.50;;;;;;6282533;27;19931;-58
2022/05/25 16:59:42;;;;;;;;;;;24.10;47.50;;;;;;6297458;27;21719;-59
2022/05/25 17:02:43;;;;;;;;;;;24.20;47.60;;;;;;6295951;27;20636;-59
2022/05/25 17:05:45;;;;;;;;;;;23.90;47.50;;;;;;6292636;27;19934;-59
2022/05/25 17:08:47;;;;;;;;;;;24.20;47.60;;;;;;6319866;27;19927;-58
2022/05/25 17:11:48;;;;;;;;;;;24.20;47.60;;;;;;6325000;27;20907;-54
2022/05/25 17:14:50;;;;;;;;;;;24.30;47.60;;;;;;6306183;27;20274;-57
2022/05/25 17:17:52;;;;;;;;;;;24.00;47.50;;;;;;6306274;27;20007;-57
2022/05/25 17:20:53;;;;;;;;;;;24.40;47.70;;;;;;6316604;27;19934;-56
2022/05/25 17:23:55;;;;;;;;;;;24.10;47.60;;;;;;6306095;27;20411;-58
2022/05/25 17:26:57;;;;;;;;;;;24.30;47.70;;;;;;6299108;27;20057;-57
2022/05/25 17:29:59;;;;;;;;;;;24.10;47.50;;;;;;6288729;27;20037;-59
2022/05/25 17:33:00;;;;;;;;;;;24.20;47.70;;;;;;6310014;27;20202;-60
2022/05/25 17:42:34;;;;;;;;;;;24.30;47.80;;;;;;6319051;27;20828;-57
2022/05/25 17:45:35;;;;;;;;;;;24.00;47.60;;;;;;6328080;27;21087;-57
2022/05/25 17:48:37;;;;;;;;;;;24.30;47.80;;;;;;6336964;27;19931;-61
2022/05/25 17:51:38;;;;;;;;;;;24.10;47.70;;;;;;6345556;27;20988;-59
2022/05/25 17:54:41;;;;;;;;;;;24.00;47.70;;;;;;6339346;27;20182;-58
2022/05/25 17:57:43;;;;;;;;;;;24.00;47.70;;;;;;6348316;27;19981;-60
2022/05/25 18:00:47;;;;;;;;;;;24.20;47.80;;;;;;6346868;27;20010;-57
2022/05/25 18:03:48;;;;;;;;;;;24.20;47.80;;;;;;6347418;27;20225;-60
2022/05/25 18:06:51;;;;;;;;;;;24.10;47.80;;;;;;6348344;27;20803;-60
2022/05/25 18:09:53;;;;;;;;;;;23.90;47.70;;;;;;6341083;27;20037;-59
2022/05/25 18:12:56;;;;;;;;;;;23.90;47.70;;;;;;6327878;27;20876;-59
2022/05/25 18:15:57;;;;;;;;;;;24.00;47.80;;;;;;6340386;27;19931;-59
2022/05/25 18:19:00;;;;;;;;;;;24.30;47.90;;;;;;6343895;27;19938;-59
2022/05/25 18:22:04;;;;;;;;;;;24.10;47.80;;;;;;6342799;27;20045;-57
2022/05/25 18:25:08;;;;;;;;;;;24.20;47.90;;;;;;6346463;27;20781;-59
2022/05/25 18:28:10;;;;;;;;;;;23.90;47.70;;;;;;6346312;27;19923;-58
2022/05/25 18:31:16;;;;;;;;;;;24.50;48.10;;;;;;6349892;27;19953;-59
2022/05/25 18:34:18;;;;;;;;;;;23.90;47.80;;;;;;6333238;27;20465;-59
2022/05/25 18:37:20;;;;;;;;;;;24.00;47.90;;;;;;6330368;27;20347;-60
2022/05/25 18:40:21;;;;;;;;;;;24.30;48.10;;;;;;6339835;27;19933;-59